Time;durP1;ratioP1;P1;durP2;ratioP2;P2;SDS_P1;SDS_P2;PMS_P1;PMS_P2;Temp;Humidity;BMP_temperature;BMP_pressure;BME280_temperature;BME280_humidity;BME280_pressure;Samples;Min_cycle;Max_cycle;Signal;HPM_P1;HPM_P2
2021/09/13 00:01:20;;;;;;;4.60;3.90;;;17.00;99.90;;;;;;5032031;28;20175;-49
2021/09/13 00:03:46;;;;;;;4.60;4.20;;;17.00;99.90;;;;;;5032252;28;20283;-49
2021/09/13 00:06:11;;;;;;;4.67;4.07;;;17.00;99.90;;;;;;5029249;28;20296;-49
2021/09/13 00:08:37;;;;;;;4.87;4.47;;;17.00;99.90;;;;;;5032691;28;20284;-49
2021/09/13 00:11:02;;;;;;;8.03;4.23;;;16.90;99.90;;;;;;5032907;28;20186;-50
2021/09/13 00:13:28;;;;;;;4.47;4.07;;;16.80;99.90;;;;;;5030848;28;20562;-50
2021/09/13 00:15:54;;;;;;;4.67;4.27;;;17.20;99.90;;;;;;5030584;28;20190;-49
2021/09/13 00:18:19;;;;;;;4.43;4.13;;;17.10;99.90;;;;;;5031402;28;20639;-50
2021/09/13 00:20:45;;;;;;;3.77;3.47;;;17.00;99.90;;;;;;5028810;28;20182;-50
2021/09/13 00:23:10;;;;;;;4.57;4.10;;;17.00;99.90;;;;;;5032422;28;20186;-50
2021/09/13 00:25:36;;;;;;;4.63;4.03;;;16.90;99.90;;;;;;5040149;28;20182;-50
2021/09/13 00:28:02;;;;;;;4.10;3.80;;;16.80;99.90;;;;;;5029023;28;20576;-50
2021/09/13 00:30:27;;;;;;;4.30;4.00;;;16.80;99.90;;;;;;5036424;28;20178;-50
2021/09/13 00:32:53;;;;;;;4.93;4.43;;;16.70;99.90;;;;;;5035468;28;20285;-50
2021/09/13 00:35:19;;;;;;;3.90;3.60;;;16.90;99.90;;;;;;5036073;28;20264;-50
2021/09/13 00:37:44;;;;;;;6.00;4.70;;;16.70;99.90;;;;;;5025529;28;20467;-49
2021/09/13 00:40:10;;;;;;;3.83;3.53;;;16.30;99.90;;;;;;5034633;28;20206;-50
2021/09/13 00:42:36;;;;;;;5.37;4.07;;;16.70;99.90;;;;;;5031843;28;20270;-49
2021/09/13 00:45:03;;;;;;;4.40;4.10;;;16.90;99.90;;;;;;5031542;28;20814;-50
2021/09/13 00:47:28;;;;;;;4.63;4.32;;;16.70;99.90;;;;;;5031455;28;20209;-49
2021/09/13 00:49:54;;;;;;;4.20;3.90;;;16.80;99.90;;;;;;5031064;28;20729;-49
2021/09/13 00:52:20;;;;;;;4.33;3.93;;;16.70;99.90;;;;;;5025529;28;20221;-50
2021/09/13 00:54:46;;;;;;;4.13;3.83;;;16.70;99.90;;;;;;5024662;28;20938;-49
2021/09/13 00:57:16;;;;;;;4.13;3.83;;;16.70;99.90;;;;;;5017944;28;20304;-50
2021/09/13 00:59:41;;;;;;;5.55;4.20;;;16.80;99.90;;;;;;5024938;28;20217;-50
2021/09/13 01:02:07;;;;;;;4.53;4.03;;;16.60;99.90;;;;;;5025186;28;20242;-49
2021/09/13 01:04:33;;;;;;;4.37;3.97;;;16.60;99.90;;;;;;5028495;28;20671;-50
2021/09/13 01:06:59;;;;;;;4.67;4.10;;;16.40;99.90;;;;;;5028587;28;20293;-50
2021/09/13 01:09:24;;;;;;;4.60;4.10;;;16.70;99.90;;;;;;5023238;28;20639;-50
2021/09/13 01:11:50;;;;;;;4.20;3.90;;;16.60;99.90;;;;;;5025368;28;20612;-50
2021/09/13 01:14:17;;;;;;;4.90;4.40;;;16.70;99.90;;;;;;5023411;28;20220;-49
2021/09/13 01:16:43;;;;;;;4.13;3.72;;;16.90;99.90;;;;;;5029450;28;20676;-50
2021/09/13 01:19:09;;;;;;;4.60;4.13;;;16.60;99.90;;;;;;5020732;28;20190;-49
2021/09/13 01:21:38;;;;;;;5.70;3.97;;;16.80;99.90;;;;;;5030373;28;20223;-49
2021/09/13 01:24:04;;;;;;;4.35;4.00;;;16.70;99.90;;;;;;5024506;28;20260;-50
2021/09/13 01:26:30;;;;;;;5.30;4.45;;;16.80;99.90;;;;;;5029536;28;20184;-50
2021/09/13 01:28:55;;;;;;;4.23;3.93;;;16.60;99.90;;;;;;5023958;28;20579;-49
2021/09/13 01:31:22;;;;;;;4.30;3.90;;;16.50;99.90;;;;;;5028482;28;20182;-50
2021/09/13 01:33:47;;;;;;;4.68;4.28;;;16.60;99.90;;;;;;5030749;28;20552;-49
2021/09/13 01:36:13;;;;;;;4.50;4.07;;;16.60;99.90;;;;;;5029790;28;20190;-50
2021/09/13 01:38:39;;;;;;;4.87;4.17;;;16.60;99.90;;;;;;5032385;28;20224;-50
2021/09/13 01:41:04;;;;;;;4.73;4.37;;;16.40;99.90;;;;;;5027218;28;20308;-50
2021/09/13 01:43:30;;;;;;;4.60;4.20;;;16.30;99.90;;;;;;5035354;28;20178;-50
2021/09/13 01:45:55;;;;;;;4.43;4.13;;;16.20;99.90;;;;;;5030713;28;20182;-50
2021/09/13 01:48:21;;;;;;;5.07;4.70;;;16.40;99.90;;;;;;5030264;28;20201;-50
2021/09/13 01:50:47;;;;;;;4.53;4.13;;;16.20;99.90;;;;;;5036500;28;20187;-50
2021/09/13 01:53:13;;;;;;;4.10;3.70;;;16.10;99.90;;;;;;5027378;28;20534;-50
2021/09/13 01:55:38;;;;;;;4.30;4.00;;;16.30;99.90;;;;;;5041356;28;20538;-50
2021/09/13 01:58:04;;;;;;;5.10;4.67;;;16.20;99.90;;;;;;5031074;28;20214;-50
2021/09/13 02:00:30;;;;;;;5.53;4.40;;;16.20;99.90;;;;;;5028557;28;20237;-50
2021/09/13 02:02:55;;;;;;;4.10;3.80;;;16.10;99.90;;;;;;5030049;28;20277;-50
2021/09/13 02:05:21;;;;;;;4.20;3.90;;;16.10;99.90;;;;;;5023241;28;20463;-50
2021/09/13 02:07:46;;;;;;;3.93;3.63;;;16.10;99.90;;;;;;5030976;28;20202;-50
2021/09/13 02:10:12;;;;;;;4.83;3.70;;;16.10;99.90;;;;;;5036539;28;20225;-50
2021/09/13 02:12:38;;;;;;;4.80;4.40;;;16.40;99.90;;;;;;5028024;28;20194;-50
2021/09/13 02:15:04;;;;;;;7.83;4.70;;;16.20;99.90;;;;;;5028312;28;20252;-50
2021/09/13 02:17:30;;;;;;;4.60;4.20;;;16.20;99.90;;;;;;5026784;28;20465;-50
2021/09/13 02:19:55;;;;;;;6.30;4.73;;;16.00;99.90;;;;;;5024765;28;20293;-49
2021/09/13 02:22:21;;;;;;;4.83;4.03;;;15.90;99.90;;;;;;5025907;28;20212;-50
2021/09/13 02:24:46;;;;;;;4.90;4.50;;;15.90;99.90;;;;;;5035927;28;20641;-50
2021/09/13 02:27:12;;;;;;;5.10;4.60;;;15.70;99.90;;;;;;5031399;28;20210;-50
2021/09/13 02:29:38;;;;;;;5.87;5.27;;;15.70;99.90;;;;;;5023608;28;20674;-50
2021/09/13 02:32:04;;;;;;;4.93;4.13;;;15.80;99.90;;;;;;5038506;28;20690;-50
2021/09/13 02:34:29;;;;;;;4.40;4.00;;;16.00;99.90;;;;;;5050957;28;20262;-49
2021/09/13 02:36:55;;;;;;;4.83;4.47;;;16.00;99.90;;;;;;5027860;28;20468;-49
2021/09/13 02:39:21;;;;;;;4.83;4.43;;;15.80;99.90;;;;;;5031987;28;20464;-49
2021/09/13 02:41:46;;;;;;;5.13;4.70;;;15.90;99.90;;;;;;5038504;28;20658;-50
2021/09/13 02:44:12;;;;;;;4.73;4.33;;;15.70;99.90;;;;;;5033571;28;20193;-49
2021/09/13 02:46:37;;;;;;;4.33;4.03;;;16.00;99.90;;;;;;5036961;28;20212;-49
2021/09/13 02:49:03;;;;;;;5.10;4.40;;;15.60;99.90;;;;;;5040270;28;20661;-50
2021/09/13 02:51:29;;;;;;;5.33;4.83;;;15.90;99.90;;;;;;5038208;28;20196;-49
2021/09/13 02:53:54;;;;;;;4.60;4.20;;;15.80;99.90;;;;;;5030003;28;20671;-50
2021/09/13 02:56:20;;;;;;;5.93;5.00;;;15.80;99.90;;;;;;5030019;28;20186;-50
2021/09/13 02:58:46;;;;;;;6.20;5.30;;;16.10;99.90;;;;;;5028464;28;20348;-49
2021/09/13 03:01:12;;;;;;;5.57;4.90;;;15.80;99.90;;;;;;5033126;28;20178;-50
2021/09/13 03:03:38;;;;;;;9.73;4.70;;;16.00;99.90;;;;;;5037548;28;20186;-50
2021/09/13 03:06:03;;;;;;;5.90;4.67;;;15.70;99.90;;;;;;5038935;28;20185;-50
2021/09/13 03:08:29;;;;;;;5.37;4.87;;;15.60;99.90;;;;;;5033611;28;20193;-50
2021/09/13 03:10:55;;;;;;;4.53;4.13;;;15.70;99.90;;;;;;5043206;28;20248;-50
2021/09/13 03:13:20;;;;;;;4.50;4.10;;;15.50;99.90;;;;;;5029358;28;20182;-50
2021/09/13 03:15:46;;;;;;;5.30;4.13;;;15.60;99.90;;;;;;5038144;28;20401;-50
2021/09/13 03:18:11;;;;;;;4.93;4.50;;;15.50;99.90;;;;;;5032517;28;20205;-51
2021/09/13 03:20:37;;;;;;;5.07;4.60;;;16.00;99.90;;;;;;5032229;28;20269;-51
2021/09/13 03:23:03;;;;;;;4.43;4.10;;;15.90;99.90;;;;;;5031539;28;20194;-51
2021/09/13 03:25:28;;;;;;;4.67;4.27;;;15.80;99.90;;;;;;5039826;28;20182;-51
2021/09/13 03:27:54;;;;;;;5.50;5.00;;;15.80;99.90;;;;;;5028401;28;20573;-51
2021/09/13 03:30:20;;;;;;;4.43;3.97;;;15.90;99.90;;;;;;5031883;28;20193;-50
2021/09/13 03:32:45;;;;;;;5.13;4.63;;;16.00;99.90;;;;;;5036926;28;20218;-50
2021/09/13 03:35:11;;;;;;;6.97;5.30;;;15.80;99.90;;;;;;5034408;28;20185;-50
2021/09/13 03:37:36;;;;;;;5.80;5.33;;;15.90;99.90;;;;;;5030381;28;20279;-50
2021/09/13 03:40:04;;;;;;;5.53;4.90;;;15.50;99.90;;;;;;5031299;28;20671;-50
2021/09/13 03:42:30;;;;;;;6.13;5.63;;;15.50;99.90;;;;;;5037279;28;20186;-49
2021/09/13 03:44:55;;;;;;;6.43;5.00;;;15.70;99.90;;;;;;5037817;28;20555;-50
2021/09/13 03:47:21;;;;;;;6.37;5.80;;;15.90;99.90;;;;;;5034771;28;20208;-49
2021/09/13 03:49:46;;;;;;;5.97;5.37;;;15.70;99.90;;;;;;5035795;28;20647;-49
2021/09/13 03:52:12;;;;;;;8.60;5.00;;;15.80;99.90;;;;;;5032774;28;20191;-49
2021/09/13 03:54:38;;;;;;;5.23;4.70;;;16.00;99.90;;;;;;5026484;28;20707;-49
2021/09/13 03:57:05;;;;;;;5.25;4.75;;;15.80;99.90;;;;;;5030869;28;20583;-49
2021/09/13 03:59:31;;;;;;;7.78;7.07;;;15.80;99.90;;;;;;5027777;28;20211;-50
2021/09/13 04:01:58;;;;;;;5.75;5.00;;;16.00;99.90;;;;;;5028264;28;20190;-50
2021/09/13 04:04:27;;;;;;;7.70;5.50;;;16.10;99.90;;;;;;5028112;28;20183;-48
2021/09/13 04:06:59;;;;;;;5.40;4.45;;;16.10;99.90;;;;;;5035060;28;20193;-49
2021/09/13 04:11:57;;;;;;;6.00;5.50;;;15.90;99.90;;;;;;5052521;28;20643;-49
2021/09/13 04:14:25;;;;;;;7.10;5.22;;;15.70;99.90;;;;;;5030558;28;20194;-49
2021/09/13 04:16:51;;;;;;;5.32;4.82;;;15.60;99.90;;;;;;5028169;28;20698;-50
2021/09/13 04:19:18;;;;;;;5.32;4.88;;;15.80;99.90;;;;;;5014016;28;20289;-49
2021/09/13 04:21:43;;;;;;;6.22;5.05;;;15.30;99.90;;;;;;5024816;28;20278;-49
2021/09/13 04:24:09;;;;;;;7.37;5.00;;;15.70;99.90;;;;;;5037822;28;20190;-50
2021/09/13 04:26:35;;;;;;;6.13;4.55;;;15.60;99.90;;;;;;5031319;28;20193;-50
2021/09/13 04:29:00;;;;;;;5.80;5.20;;;15.80;99.90;;;;;;5029958;28;20186;-50
2021/09/13 04:31:27;;;;;;;5.80;5.20;;;15.50;99.90;;;;;;5028542;28;20186;-50
2021/09/13 04:33:53;;;;;;;6.07;5.57;;;15.90;99.90;;;;;;5031216;28;20278;-49
2021/09/13 04:36:19;;;;;;;6.65;6.03;;;15.80;99.90;;;;;;5035792;28;20196;-49
2021/09/13 04:38:45;;;;;;;5.73;5.20;;;15.30;99.90;;;;;;5024890;28;20206;-49
2021/09/13 04:41:10;;;;;;;5.60;5.10;;;15.50;99.90;;;;;;5031344;28;20276;-49
2021/09/13 04:43:36;;;;;;;6.20;5.57;;;15.30;99.90;;;;;;5028934;28;20195;-49
2021/09/13 04:46:02;;;;;;;5.83;5.33;;;15.50;99.90;;;;;;5030195;28;20186;-49
2021/09/13 04:48:27;;;;;;;5.43;4.93;;;15.40;99.90;;;;;;5031314;28;20221;-49
2021/09/13 04:50:53;;;;;;;6.90;5.40;;;15.30;99.90;;;;;;5034842;28;20444;-49
2021/09/13 04:53:20;;;;;;;6.27;5.70;;;15.50;99.90;;;;;;5029625;28;20205;-49
2021/09/13 04:55:46;;;;;;;6.20;5.70;;;15.30;99.90;;;;;;5032289;28;20606;-49
2021/09/13 04:58:11;;;;;;;5.67;5.27;;;15.40;99.90;;;;;;5034425;28;20206;-49
2021/09/13 05:00:37;;;;;;;7.13;6.20;;;15.50;99.90;;;;;;5021028;28;20505;-48
2021/09/13 05:03:03;;;;;;;5.50;5.10;;;15.60;99.90;;;;;;5029152;28;20252;-48
2021/09/13 05:05:29;;;;;;;5.70;5.10;;;15.40;99.90;;;;;;5031363;28;20273;-50
2021/09/13 05:07:54;;;;;;;8.00;6.40;;;15.40;99.90;;;;;;5030559;28;20297;-50
2021/09/13 05:10:20;;;;;;;6.30;5.77;;;15.50;99.90;;;;;;5032945;28;20598;-50
2021/09/13 05:12:46;;;;;;;5.63;5.17;;;15.50;99.90;;;;;;5024040;28;20195;-50
2021/09/13 05:15:12;;;;;;;5.90;5.33;;;15.60;99.90;;;;;;5025449;28;20502;-50
2021/09/13 05:17:37;;;;;;;5.83;5.30;;;15.60;99.90;;;;;;5030886;28;20232;-50
2021/09/13 05:20:04;;;;;;;7.37;5.60;;;15.80;99.90;;;;;;5028376;28;20480;-50
2021/09/13 05:22:29;;;;;;;6.07;5.50;;;15.60;99.90;;;;;;5036212;28;20224;-50
2021/09/13 05:24:55;;;;;;;5.70;5.20;;;15.50;99.90;;;;;;5027511;28;20209;-49
2021/09/13 05:27:21;;;;;;;6.27;5.53;;;15.70;99.90;;;;;;5026866;28;20302;-50
2021/09/13 05:29:46;;;;;;;6.83;6.00;;;15.70;99.90;;;;;;5030625;28;21400;-49
2021/09/13 05:32:12;;;;;;;6.33;5.73;;;15.90;99.90;;;;;;5032026;28;20194;-49
2021/09/13 05:34:38;;;;;;;5.80;5.03;;;15.60;99.90;;;;;;5020971;28;20206;-51
2021/09/13 05:37:03;;;;;;;6.20;5.43;;;16.00;99.90;;;;;;5025931;28;20300;-51
2021/09/13 05:39:30;;;;;;;5.43;5.00;;;16.10;99.90;;;;;;5031958;28;20289;-52
2021/09/13 05:41:56;;;;;;;7.35;5.43;;;15.80;99.90;;;;;;5027907;28;20201;-49
2021/09/13 05:44:22;;;;;;;6.43;5.78;;;15.90;99.90;;;;;;5021305;28;20561;-49
2021/09/13 05:46:48;;;;;;;6.57;5.97;;;16.00;99.90;;;;;;5028002;28;20262;-49
2021/09/13 05:49:14;;;;;;;6.40;4.70;;;15.80;99.90;;;;;;5025509;28;20651;-49
2021/09/13 05:51:45;;;;;;;6.97;5.93;;;15.70;99.90;;;;;;5026281;28;20446;-49
2021/09/13 05:54:11;;;;;;;6.70;5.97;;;15.70;99.90;;;;;;5027957;28;20174;-49
2021/09/13 05:56:37;;;;;;;6.60;5.82;;;15.90;99.90;;;;;;5037290;28;20213;-50
2021/09/13 05:59:03;;;;;;;6.67;5.80;;;16.00;99.90;;;;;;5027560;28;20268;-50
2021/09/13 06:01:29;;;;;;;6.03;5.40;;;15.80;99.90;;;;;;5023842;28;20185;-50
2021/09/13 06:03:54;;;;;;;7.20;6.50;;;16.10;99.90;;;;;;5021366;28;20287;-50
2021/09/13 06:06:20;;;;;;;7.03;6.30;;;16.00;99.90;;;;;;5031921;28;20628;-50
2021/09/13 06:08:45;;;;;;;6.37;5.87;;;15.80;99.90;;;;;;5023798;28;20206;-51
2021/09/13 06:11:11;;;;;;;7.07;6.37;;;16.30;99.90;;;;;;5032427;28;20214;-50
2021/09/13 06:13:37;;;;;;;7.13;6.30;;;16.20;99.90;;;;;;5028247;28;20209;-50
2021/09/13 06:16:02;;;;;;;7.10;6.50;;;16.40;99.90;;;;;;5025781;28;20186;-50
2021/09/13 06:18:28;;;;;;;7.90;7.20;;;16.20;99.90;;;;;;5023221;28;20246;-50
2021/09/13 06:20:53;;;;;;;5.87;5.37;;;16.50;99.90;;;;;;5026237;28;20190;-50
2021/09/13 06:23:19;;;;;;;7.23;5.43;;;16.50;99.90;;;;;;5028279;28;20181;-50
2021/09/13 06:25:45;;;;;;;6.50;5.90;;;16.60;99.90;;;;;;5023112;28;20779;-50
2021/09/13 06:28:10;;;;;;;6.57;5.97;;;16.60;99.90;;;;;;5020145;28;20202;-51
2021/09/13 06:30:36;;;;;;;8.97;6.03;;;16.80;99.90;;;;;;5024907;28;20190;-51
2021/09/13 06:33:02;;;;;;;5.80;5.20;;;16.70;99.90;;;;;;5020095;28;20180;-51
2021/09/13 06:35:28;;;;;;;9.07;5.68;;;16.90;99.90;;;;;;5032575;28;20335;-50
2021/09/13 06:37:53;;;;;;;6.40;5.27;;;16.90;99.90;;;;;;5029456;28;20300;-51
2021/09/13 06:40:19;;;;;;;6.73;5.57;;;16.80;99.90;;;;;;5026984;28;20726;-50
2021/09/13 06:42:45;;;;;;;6.63;6.10;;;16.90;99.90;;;;;;5023777;28;20179;-51
2021/09/13 06:45:22;;;;;;;7.60;6.27;;;16.80;99.90;;;;;;5028755;28;20208;-49
2021/09/13 06:47:48;;;;;;;9.48;8.68;;;17.30;99.90;;;;;;5023557;28;20237;-50
2021/09/13 06:50:17;;;;;;;7.03;6.17;;;17.30;99.90;;;;;;5025173;28;20182;-49
2021/09/13 06:52:45;;;;;;;7.93;7.22;;;17.10;99.90;;;;;;5030323;28;20598;-49
2021/09/13 06:55:11;;;;;;;7.47;6.63;;;17.50;99.90;;;;;;5020820;28;20182;-49
2021/09/13 06:57:38;;;;;;;7.65;7.05;;;17.40;99.90;;;;;;5025577;28;20289;-49
2021/09/13 07:00:17;;;;;;;7.78;7.05;;;17.40;99.90;;;;;;5027215;28;20206;-49
2021/09/13 07:02:45;;;;;;;6.10;5.60;;;18.30;99.90;;;;;;5020930;28;20276;-50
2021/09/13 07:05:11;;;;;;;6.25;5.75;;;20.20;99.90;;;;;;5028094;28;20607;-50
2021/09/13 07:07:38;;;;;;;6.00;5.50;;;21.20;99.90;;;;;;5020752;28;20206;-50
2021/09/13 07:10:05;;;;;;;6.43;5.80;;;23.10;99.90;;;;;;5024447;28;20453;-50
2021/09/13 07:12:30;;;;;;;6.53;5.87;;;24.90;95.40;;;;;;5021207;28;20462;-50
2021/09/13 07:14:56;;;;;;;5.80;5.30;;;24.90;93.50;;;;;;5026383;28;20445;-54
2021/09/13 07:17:22;;;;;;;6.03;5.50;;;25.70;93.50;;;;;;5038582;28;20198;-54
2021/09/13 07:19:48;;;;;;;5.57;5.10;;;27.40;91.00;;;;;;5027107;28;20244;-54
2021/09/13 07:22:13;;;;;;;5.50;4.90;;;28.40;85.20;;;;;;5031723;28;20308;-53
2021/09/13 07:24:43;;;;;;;6.40;5.90;;;29.60;80.40;;;;;;5031866;28;20452;-54
2021/09/13 07:27:10;;;;;;;6.30;4.93;;;30.90;76.30;;;;;;5028304;28;20255;-51
2021/09/13 07:29:36;;;;;;;6.63;6.03;;;32.00;70.70;;;;;;5025421;28;20453;-50
2021/09/13 07:32:02;;;;;;;6.40;5.90;;;31.70;66.10;;;;;;5030307;28;20445;-51
2021/09/13 07:34:29;;;;;;;6.93;6.20;;;31.30;68.40;;;;;;5034310;28;20465;-51
2021/09/13 07:36:55;;;;;;;6.57;5.90;;;31.20;68.10;;;;;;5043654;28;20601;-51
2021/09/13 07:39:22;;;;;;;7.10;6.57;;;31.30;66.50;;;;;;5031703;28;20479;-50
2021/09/13 07:41:48;;;;;;;7.23;6.50;;;30.60;68.90;;;;;;5038169;28;20921;-51
2021/09/13 07:44:13;;;;;;;6.93;6.43;;;31.40;66.40;;;;;;5032875;28;20444;-51
2021/09/13 07:46:39;;;;;;;7.93;6.40;;;32.70;64.20;;;;;;5032831;28;20616;-51
2021/09/13 07:49:05;;;;;;;7.53;6.70;;;33.30;61.30;;;;;;5032336;28;20190;-52
2021/09/13 07:51:31;;;;;;;6.27;5.83;;;33.90;58.90;;;;;;5021106;28;20190;-53
2021/09/13 07:53:56;;;;;;;5.90;5.50;;;34.40;58.20;;;;;;5029887;28;20244;-53
2021/09/13 07:56:22;;;;;;;6.40;5.00;;;35.20;56.50;;;;;;5035962;28;20197;-53
2021/09/13 07:58:47;;;;;;;6.57;5.63;;;36.00;54.00;;;;;;5036435;28;20221;-52
2021/09/13 08:01:13;;;;;;;5.60;5.00;;;36.60;53.00;;;;;;5029793;28;20195;-53
2021/09/13 08:03:39;;;;;;;5.20;4.80;;;37.30;51.50;;;;;;5038182;28;20190;-54
2021/09/13 08:06:06;;;;;;;4.80;4.50;;;37.70;49.80;;;;;;5030784;28;20767;-54
2021/09/13 08:08:32;;;;;;;5.97;5.43;;;37.10;49.40;;;;;;5030076;28;20214;-54
2021/09/13 08:10:58;;;;;;;5.60;5.20;;;37.00;49.50;;;;;;5030010;28;20459;-54
2021/09/13 08:13:23;;;;;;;4.80;4.33;;;37.40;48.80;;;;;;5028493;28;20540;-54
2021/09/13 08:15:49;;;;;;;4.87;4.57;;;37.20;48.50;;;;;;5034044;28;20194;-53
2021/09/13 08:18:15;;;;;;;5.13;4.83;;;36.70;49.30;;;;;;5035975;28;20571;-54
2021/09/13 08:20:40;;;;;;;5.37;4.97;;;37.00;48.50;;;;;;5025522;28;20267;-54
2021/09/13 08:23:06;;;;;;;6.13;5.40;;;36.60;48.50;;;;;;5028695;28;20182;-53
2021/09/13 08:25:31;;;;;;;5.63;5.13;;;35.30;50.70;;;;;;5035849;28;20620;-53
2021/09/13 08:27:57;;;;;;;6.83;6.33;;;34.70;51.50;;;;;;5027875;28;20236;-53
2021/09/13 08:30:23;;;;;;;5.40;4.97;;;36.00;51.20;;;;;;5035237;28;20196;-53
2021/09/13 08:32:48;;;;;;;6.17;5.60;;;37.00;48.70;;;;;;5021679;28;20195;-53
2021/09/13 08:35:14;;;;;;;5.90;5.43;;;37.10;48.50;;;;;;5020554;28;20608;-52
2021/09/13 08:37:39;;;;;;;7.10;6.60;;;35.80;48.90;;;;;;5023312;28;20213;-52
2021/09/13 08:40:06;;;;;;;5.70;5.30;;;37.20;49.00;;;;;;5019622;28;20219;-52
2021/09/13 08:42:44;;;;;;;4.93;4.60;;;37.90;47.50;;;;;;5019156;28;20186;-53
2021/09/13 08:45:11;;;;;;;5.97;5.37;;;36.90;47.40;;;;;;5030549;28;20448;-52
2021/09/13 08:47:48;;;;;;;5.80;5.30;;;35.00;50.40;;;;;;5017113;28;20555;-51
2021/09/13 08:52:58;;;;;;;5.80;5.20;;;31.60;56.40;;;;;;5022340;28;20510;-56
2021/09/13 08:55:23;;;;;;;4.73;4.00;;;30.80;59.10;;;;;;5028911;28;20440;-55
2021/09/13 08:57:51;;;;;;;6.53;5.70;;;30.00;61.40;;;;;;5021366;28;20220;-56
2021/09/13 09:00:17;;;;;;;6.67;5.00;;;28.90;64.60;;;;;;5027391;28;20246;-56
2021/09/13 09:02:43;;;;;;;4.80;4.40;;;28.40;67.10;;;;;;5020779;28;20527;-56
2021/09/13 09:05:09;;;;;;;5.93;5.00;;;27.80;70.10;;;;;;5032385;28;20437;-54
2021/09/13 09:08:01;;;;;;;10.50;9.60;;;27.20;72.10;;;;;;5026398;28;20279;-55
2021/09/13 09:10:27;;;;;;;11.63;10.43;;;26.50;75.50;;;;;;5025558;28;20454;-55
2021/09/13 09:13:11;;;;;;;6.67;5.53;;;26.20;77.40;;;;;;5025338;28;20448;-55
2021/09/13 09:15:55;;;;;;;7.77;6.77;;;26.00;78.60;;;;;;5028596;28;20448;-54
2021/09/13 09:18:36;;;;;;;5.47;4.80;;;26.10;79.80;;;;;;5028459;28;20498;-56
2021/09/13 09:21:02;;;;;;;5.80;4.20;;;26.10;80.20;;;;;;5021239;28;20468;-55
2021/09/13 09:23:28;;;;;;;4.27;3.87;;;26.40;79.60;;;;;;5030113;28;20444;-55
2021/09/13 09:25:54;;;;;;;4.37;3.97;;;26.50;78.90;;;;;;5024656;28;20190;-55
2021/09/13 09:28:20;;;;;;;4.40;4.00;;;26.70;78.60;;;;;;5033024;28;20945;-52
2021/09/13 09:30:47;;;;;;;6.17;5.13;;;26.80;77.30;;;;;;5026225;28;20465;-51
2021/09/13 09:33:17;;;;;;;4.93;4.53;;;26.70;77.40;;;;;;5028687;28;20243;-52
2021/09/13 09:35:57;;;;;;;6.80;4.27;;;26.30;78.60;;;;;;5036298;28;20506;-51
2021/09/13 09:38:36;;;;;;;4.80;4.20;;;26.20;79.10;;;;;;5029012;28;20503;-51
2021/09/13 09:41:02;;;;;;;4.60;4.20;;;26.10;79.70;;;;;;5028413;28;20577;-52
2021/09/13 09:43:30;;;;;;;5.40;4.43;;;26.50;79.30;;;;;;5028494;28;20844;-51
2021/09/13 09:45:56;;;;;;;4.63;4.20;;;26.70;78.30;;;;;;5039439;28;20440;-51
2021/09/13 09:48:29;;;;;;;4.03;3.63;;;27.10;76.00;;;;;;5029074;28;20465;-50
2021/09/13 09:50:54;;;;;;;4.27;3.97;;;28.30;72.40;;;;;;5039910;28;20187;-51
2021/09/13 09:53:21;;;;;;;4.67;4.00;;;28.50;71.40;;;;;;5029434;28;20437;-50
2021/09/13 09:55:53;;;;;;;4.47;4.17;;;28.30;71.70;;;;;;5018916;28;20199;-50
2021/09/13 09:58:18;;;;;;;4.30;3.90;;;28.30;71.80;;;;;;5027776;28;20467;-51
2021/09/13 10:00:45;;;;;;;6.17;5.67;;;28.30;72.50;;;;;;5038716;28;20802;-50
2021/09/13 10:03:26;;;;;;;4.67;4.27;;;28.10;73.50;;;;;;5029498;28;20287;-51
2021/09/13 10:05:51;;;;;;;4.43;4.13;;;28.10;72.90;;;;;;5030411;28;20570;-50
2021/09/13 10:08:17;;;;;;;4.53;4.13;;;28.00;73.30;;;;;;5032741;28;20509;-52
2021/09/13 10:10:43;;;;;;;5.37;4.97;;;27.60;73.80;;;;;;5028584;28;20281;-50
2021/09/13 10:13:08;;;;;;;4.97;4.47;;;27.40;75.30;;;;;;5036764;28;20194;-50
2021/09/13 10:15:34;;;;;;;4.60;4.20;;;27.10;76.20;;;;;;5036594;28;20660;-51
2021/09/13 10:18:00;;;;;;;5.13;4.73;;;27.00;78.00;;;;;;5032308;28;20233;-50
2021/09/13 10:20:25;;;;;;;4.73;4.43;;;26.90;78.50;;;;;;5031525;28;20210;-51
2021/09/13 10:22:54;;;;;;;5.63;5.17;;;26.70;78.40;;;;;;5031019;28;20739;-50
2021/09/13 10:25:20;;;;;;;5.30;4.80;;;26.60;78.90;;;;;;5028320;28;20702;-50
2021/09/13 10:27:47;;;;;;;5.27;4.60;;;26.30;79.60;;;;;;5025703;28;20463;-50
2021/09/13 10:30:16;;;;;;;5.33;4.93;;;26.20;80.90;;;;;;5031670;28;20537;-50
2021/09/13 10:32:45;;;;;;;5.07;4.57;;;26.40;80.50;;;;;;5034773;28;20447;-51
2021/09/13 10:35:12;;;;;;;5.10;4.70;;;26.50;79.90;;;;;;5028437;28;20629;-51
2021/09/13 10:37:50;;;;;;;6.13;5.20;;;26.40;80.40;;;;;;5026278;28;20518;-50
2021/09/13 10:40:15;;;;;;;5.13;4.73;;;26.70;80.20;;;;;;5033802;28;20532;-50
2021/09/13 10:42:42;;;;;;;4.47;4.07;;;26.70;80.10;;;;;;5026687;28;20444;-50
2021/09/13 10:45:15;;;;;;;4.60;4.20;;;26.90;79.50;;;;;;5033847;28;20195;-50
2021/09/13 10:48:01;;;;;;;4.87;4.50;;;27.00;79.20;;;;;;5028295;28;20545;-50
2021/09/13 10:50:39;;;;;;;3.93;3.63;;;26.70;79.50;;;;;;5031923;28;20493;-50
2021/09/13 10:53:17;;;;;;;5.10;4.20;;;26.60;80.60;;;;;;5035305;28;20454;-50
2021/09/13 10:56:06;;;;;;;5.17;4.67;;;26.60;80.90;;;;;;5038367;28;20439;-50
2021/09/13 10:58:37;;;;;;;6.33;4.80;;;26.50;81.10;;;;;;5035954;28;20845;-50
2021/09/13 11:01:08;;;;;;;4.63;4.23;;;26.30;82.20;;;;;;5042885;28;20459;-51
2021/09/13 11:03:36;;;;;;;5.13;4.73;;;26.30;81.40;;;;;;5031723;28;20447;-50
2021/09/13 11:06:05;;;;;;;4.33;4.03;;;26.10;82.30;;;;;;5034635;28;20438;-50
2021/09/13 11:08:41;;;;;;;4.90;4.47;;;25.90;82.60;;;;;;5029338;28;20467;-50
2021/09/13 11:11:10;;;;;;;4.87;4.47;;;25.70;84.80;;;;;;5032213;28;20466;-50
2021/09/13 11:13:36;;;;;;;4.73;4.33;;;26.10;83.80;;;;;;5031002;28;20972;-51
2021/09/13 11:16:02;;;;;;;4.37;4.07;;;26.30;81.70;;;;;;5035299;28;20443;-51
2021/09/13 11:18:34;;;;;;;4.77;4.37;;;26.40;81.20;;;;;;5030950;28;20791;-51
2021/09/13 11:21:27;;;;;;;4.87;4.47;;;26.20;82.30;;;;;;5026518;28;20319;-50
2021/09/13 11:24:04;;;;;;;4.90;4.47;;;26.30;81.80;;;;;;5028941;28;20948;-51
2021/09/13 11:26:42;;;;;;;4.53;4.20;;;26.50;80.10;;;;;;5031533;28;20432;-50
2021/09/13 11:29:12;;;;;;;4.20;3.90;;;26.50;80.20;;;;;;5026308;28;20797;-50
2021/09/13 11:31:42;;;;;;;5.20;4.90;;;26.60;79.20;;;;;;5030910;28;20519;-51
2021/09/13 11:34:13;;;;;;;4.50;4.20;;;26.80;78.00;;;;;;5036105;28;20505;-51
2021/09/13 11:36:50;;;;;;;4.10;3.80;;;27.20;77.60;;;;;;5028126;28;20467;-50
2021/09/13 11:39:17;;;;;;;5.33;4.93;;;27.40;76.10;;;;;;5031309;28;20952;-50
2021/09/13 11:41:56;;;;;;;4.27;3.97;;;27.40;75.00;;;;;;5035279;28;20520;-50
2021/09/13 11:44:22;;;;;;;6.20;5.70;;;27.20;77.30;;;;;;5026138;28;20442;-50
2021/09/13 11:47:05;;;;;;;4.57;4.17;;;27.30;77.20;;;;;;5029093;28;20548;-50
2021/09/13 11:49:32;;;;;;;4.70;4.30;;;27.30;76.80;;;;;;5030119;28;20263;-53
2021/09/13 11:52:18;;;;;;;4.13;3.90;;;27.20;76.20;;;;;;5035459;28;20477;-52
2021/09/13 11:54:51;;;;;;;4.07;3.77;;;27.00;77.70;;;;;;5023837;28;20445;-52
2021/09/13 11:57:36;;;;;;;4.73;4.33;;;27.00;78.00;;;;;;5008938;28;20460;-52
2021/09/13 12:00:07;;;;;;;4.93;4.53;;;27.00;77.30;;;;;;5030402;28;20852;-52
2021/09/13 12:02:34;;;;;;;5.40;4.90;;;26.70;78.10;;;;;;5030120;28;20441;-52
2021/09/13 12:05:09;;;;;;;5.13;4.73;;;26.70;79.00;;;;;;5034287;28;20435;-54
2021/09/13 12:07:34;;;;;;;4.43;3.90;;;26.60;78.10;;;;;;5025417;28;20617;-52
2021/09/13 12:10:00;;;;;;;4.50;4.20;;;26.50;78.80;;;;;;5023581;28;20532;-52
2021/09/13 12:12:27;;;;;;;4.70;4.30;;;26.60;78.20;;;;;;5026454;28;20558;-53
2021/09/13 12:14:59;;;;;;;7.80;7.10;;;26.60;77.80;;;;;;5019034;28;20186;-51
2021/09/13 12:17:33;;;;;;;4.37;4.07;;;26.80;78.90;;;;;;5023959;28;20699;-51
2021/09/13 12:20:25;;;;;;;4.70;4.30;;;27.10;78.20;;;;;;5013073;28;20798;-51
2021/09/13 12:23:13;;;;;;;4.73;4.43;;;27.30;76.40;;;;;;5028274;28;20481;-52
2021/09/13 12:25:50;;;;;;;4.30;4.00;;;27.40;75.80;;;;;;5027540;28;20575;-51
2021/09/13 12:28:24;;;;;;;4.37;3.70;;;27.30;75.40;;;;;;5025667;28;20484;-50
2021/09/13 12:30:53;;;;;;;3.70;3.40;;;27.00;74.60;;;;;;5034906;28;20449;-51
2021/09/13 12:33:19;;;;;;;4.27;3.97;;;26.70;74.20;;;;;;5028014;28;20437;-50
2021/09/13 12:35:52;;;;;;;4.43;4.00;;;26.70;75.40;;;;;;5025752;28;20459;-50
2021/09/13 12:38:22;;;;;;;3.90;3.60;;;26.80;75.60;;;;;;5025940;28;20202;-50
2021/09/13 12:40:58;;;;;;;7.57;6.97;;;26.80;74.60;;;;;;5029650;28;21003;-50
2021/09/13 12:43:28;;;;;;;4.97;4.57;;;26.90;74.80;;;;;;5020934;28;20494;-50
2021/09/13 12:46:11;;;;;;;3.83;3.53;;;27.00;73.90;;;;;;5027477;28;20448;-51
2021/09/13 12:48:40;;;;;;;6.43;5.83;;;27.00;73.10;;;;;;5030174;28;20460;-51
2021/09/13 12:51:12;;;;;;;4.00;3.70;;;27.00;74.50;;;;;;5029364;28;20436;-51
2021/09/13 12:53:37;;;;;;;3.90;3.60;;;27.10;74.50;;;;;;5021600;28;20445;-50